METAR (acronimo di METeorological Air Report) è un messaggio meteo emesso nella maggior parte dei casi in ambito aeroportuale

UEEE - Yakutsk, Russia
Ultimo Aggiornamento: Giovedì 03 Dicembre 2020 17:30 CET
Neve Leggera, Parzialmente Nuvoloso
Neve Leggera, Parzialmente Nuvoloso
 Wind from Nord
Vento: Nord 7 km/h
Temperatura: -21°C
Wind Chill: -27°C
Punto di Rugiada: -24°C
Umidità: 77%
Barometro: 995 hPa
Condizioni: Neve Leggera
Nuvole: Parzialmente Nuvoloso
Visibilità: 3 km
2020/12/03 16:30 UEEE 031630Z 35002MPS 3200 -SN NSC M21/M24 Q0995 R23L/450142 NOSIG RMK QFE738
UHWW - Vladivostok, Russia
Ultimo Aggiornamento: Giovedì 03 Dicembre 2020 17:30 CET
Parzialmente Nuvoloso
Parzialmente Nuvoloso
 Wind from Est
Vento: Est 4 km/h
Temperatura: -15°C
Punto di Rugiada: -17°C
Umidità: 85%
Barometro: 1026 hPa
Nuvole: Parzialmente Nuvoloso
Visibilità: 10 km
2020/12/03 16:30 UHWW 031630Z 08001MPS 9999 NSC M15/M17 Q1026 R25L/810160 NOSIG RMK QFE769
ZMUB - Ulan Bator, Mongolia
Ultimo Aggiornamento: Giovedì 03 Dicembre 2020 18:00 CET
Sereno
Sereno
 Wind from varies
Vento: variabile 4 km/h
Temperatura: -30°C
Punto di Rugiada: -34°C
Umidità: 68%
Barometro: 1030 hPa
Condizioni: Sereno
Visibilità: superiore a 10 km
2020/12/03 17:00 ZMUB 031700Z VRB01MPS CAVOK M30/M34 Q1030 NOSIG RMK QFE664.0 67
 
UTTT - Tashkent, Uzbekistan
Ultimo Aggiornamento: Giovedì 03 Dicembre 2020 17:30 CET
Bruma, Parzialmente Nuvoloso
Bruma, Parzialmente Nuvoloso
 Wind from varies
Vento: variabile 4 km/h
Temperatura: 4°C
Punto di Rugiada: 1°C
Umidità: 81%
Barometro: 1027 hPa
Condizioni: Bruma
Nuvole: Parzialmente Nuvoloso
Visibilità: 3 km
Nuvole nel Dettaglio: Parzialmente Nuvoloso 762 m
2020/12/03 16:30 UTTT 031630Z VRB02KT 3000 BR SCT025 04/01 Q1027 R08R/CLRD70 NOSIG
OAKB - Kabul, Afghanistan
Ultimo Aggiornamento: Giovedì 03 Dicembre 2020 17:50 CET
Fumo, Qualche Nuvola
Fumo, Qualche Nuvola
 Wind from varies
Vento: variabile 6 km/h
Temperatura: 8°C
Punto di Rugiada: 3°C
Umidità: 71%
Barometro: 1020 hPa
Condizioni: Fumo
Nuvole: Qualche Nuvola
Visibilità: 2 km
Nuvole nel Dettaglio: Qualche Nuvola 3048 m
2020/12/03 16:50 OAKB 031650Z VRB03KT 2000 FU FEW100 08/03 Q1020 RMK A3014 YLO YLO
OPIS - Islamabad, Pakistan
Ultimo Aggiornamento: Giovedì 03 Dicembre 2020 17:25 CET
Foschia, Parzialmente Nuvoloso
Foschia, Parzialmente Nuvoloso
 Wind from Est
Vento: Est 13 km/h
Temperatura: 12°C
Punto di Rugiada: 8°C
Umidità: 77%
Barometro: 1014 hPa
Condizioni: Foschia
Nuvole: Parzialmente Nuvoloso
Visibilità: 4 km
2020/12/03 16:25 OPIS 031625Z 09007KT 4000 HZ NSC 12/08 Q1014 NOSIG
 
ZBAA - Pechino, Cina
Ultimo Aggiornamento: Giovedì 03 Dicembre 2020 17:30 CET
Sereno
Sereno
 Wind from Nord-Ovest
Vento: Nord-Ovest 25 km/h
Temperatura: -1°C
Wind Chill: -7°C
Punto di Rugiada: -15°C
Umidità: 34%
Barometro: 1037 hPa
Condizioni: Sereno
Visibilità: superiore a 10 km
2020/12/03 16:30 ZBAA 031630Z 32007MPS CAVOK M01/M15 Q1037 NOSIG
VHHH - Pechino, Cina
Ultimo Aggiornamento: Giovedì 03 Dicembre 2020 17:30 CET
Qualche Nuvola
Qualche Nuvola
 Wind from Nord
Vento: Nord 13 km/h
Temperatura: 15°C
Punto di Rugiada: 6°C
Umidità: 55%
Barometro: 1022 hPa
Nuvole: Qualche Nuvola
Visibilità: 10 km
Nuvole nel Dettaglio: Qualche Nuvola 1219 m
2020/12/03 16:30 VHHH 031630Z 01007KT 9999 FEW040 15/06 Q1022 NOSIG
RKSI - Seul-Incheon, Corea del Sud
Ultimo Aggiornamento: Giovedì 03 Dicembre 2020 17:30 CET
Sereno
Sereno
 Wind from Nord-Est
Vento: Nord-Est 7 km/h
Temperatura: -2°C
Wind Chill: -6°C
Punto di Rugiada: -10°C
Umidità: 55%
Barometro: 1031 hPa
Condizioni: Sereno
Visibilità: superiore a 10 km
2020/12/03 16:30 RKSI 031630Z 04004KT CAVOK M02/M10 Q1031 NOSIG
 
RJTT - Tokyo-Haneda, Japan
Ultimo Aggiornamento: Giovedì 03 Dicembre 2020 17:30 CET
Qualche Nuvola
Qualche Nuvola
 Wind from Nord
Vento: Nord 22 km/h
Temperatura: 9°C
Wind Chill: 6°C
Punto di Rugiada: 8°C
Umidità: 94%
Barometro: 1018 hPa
Nuvole: Qualche Nuvola
Visibilità: 9 km
Nuvole nel Dettaglio: Qualche Nuvola 305 m
2020/12/03 16:30 RJTT 031630Z 36012KT 9000 FEW010 09/08 Q1018 NOSIG RMK 1CU010 A3007
OIII - Tehran, Iran
Ultimo Aggiornamento: Giovedì 03 Dicembre 2020 17:30 CET
Bruma, Prevalentemente Nuvoloso
Bruma, Prevalentemente Nuvoloso
 Wind from Nord
Vento: Nord 7 km/h
Temperatura: 8°C
Wind Chill: 7°C
Punto di Rugiada: 6°C
Umidità: 87%
Barometro: 1024 hPa
Condizioni: Bruma
Nuvole: Prevalentemente Nuvoloso
Visibilità: 3 km
Nuvole nel Dettaglio: Qualche Nuvola 1219 m
Prevalentemente Nuvoloso 3048 m
2020/12/03 16:30 OIII 031630Z 35004KT 3000 BR FEW040 BKN100 08/06 Q1024 A3025
ORBI - Baghdad, Iraq
Ultimo Aggiornamento: Giovedì 03 Dicembre 2020 17:00 CET
Sereno
Sereno
 Wind from calm
Vento: Calma
Temperatura: 15°C
Punto di Rugiada: 11°C
Umidità: 77%
Barometro: 1021 hPa
Condizioni: Sereno
Visibilità: superiore a 10 km
2020/12/03 16:00 ORBI 031600Z 00000KT CAVOK 15/11 Q1021
 
OKBK - Kuwait City, Kuwait
Ultimo Aggiornamento: Giovedì 03 Dicembre 2020 17:00 CET
Bruma, Prevalentemente Nuvoloso
Bruma, Prevalentemente Nuvoloso
 Wind from Nord-Est
Vento: Nord-Est 6 km/h
Temperatura: 20°C
Punto di Rugiada: 18°C
Umidità: 88%
Barometro: 1020 hPa
Condizioni: Bruma
Nuvole: Prevalentemente Nuvoloso
Visibilità: 4 km
Nuvole nel Dettaglio: Parzialmente Nuvoloso 1219 m
Prevalentemente Nuvoloso 2438 m
2020/12/03 16:00 OKBK 031600Z 05003KT 4000 BR SCT040 BKN080 20/18 Q1020 NOSIG
OMDB - Dubai, United Arab Emirates
Ultimo Aggiornamento: Giovedì 03 Dicembre 2020 17:00 CET
Qualche Nuvola
Qualche Nuvola
 Wind from Nord-Nord-Ovest
Vento: Nord-Nord-Ovest 13 km/h
Temperatura: 26°C
Punto di Rugiada: 20°C
Umidità: 70%
Barometro: 1016 hPa
Nuvole: Qualche Nuvola
Visibilità: 10 km
Nuvole nel Dettaglio: Qualche Nuvola 701 m
2020/12/03 16:00 OMDB 031600Z 33007KT 9999 FEW023 26/20 Q1016 NOSIG
VIDP - New Delhi, India
Ultimo Aggiornamento: Giovedì 03 Dicembre 2020 17:30 CET
Fumo, Parzialmente Nuvoloso
Fumo, Parzialmente Nuvoloso
 Wind from calm
Vento: Calma
Temperatura: 16°C
Punto di Rugiada: 11°C
Umidità: 72%
Barometro: 1015 hPa
Condizioni: Fumo
Nuvole: Parzialmente Nuvoloso
Visibilità: 2 km
2020/12/03 16:30 VIDP 031630Z 00000KT 2200 FU NSC 16/11 Q1015 NOSIG
 
VVNB - Hanoi, Vietnam
Ultimo Aggiornamento: Giovedì 03 Dicembre 2020 17:30 CET
Sereno
Sereno
 Wind from Est-Nord-Est
Vento: Est-Nord-Est 15 km/h
Temperatura: 18°C
Punto di Rugiada: 8°C
Umidità: 52%
Barometro: 1023 hPa
Condizioni: Sereno
Visibilità: superiore a 10 km
2020/12/03 16:30 VVNB 031630Z 06008KT CAVOK 18/08 Q1023 NOSIG
VVTS - Ho Chi Minh City, Vietnam
Ultimo Aggiornamento: Giovedì 03 Dicembre 2020 17:30 CET
Qualche Nuvola
Qualche Nuvola
 Wind from varies
Vento: variabile 6 km/h
Temperatura: 25°C
Punto di Rugiada: 17°C
Umidità: 61%
Barometro: 1011 hPa
Nuvole: Qualche Nuvola
Visibilità: 10 km
Nuvole nel Dettaglio: Qualche Nuvola 610 m
2020/12/03 16:30 VVTS 031630Z VRB03KT 9999 FEW020 25/17 Q1011 NOSIG
RPLL - Manila, Philippines
Ultimo Aggiornamento: Giovedì 03 Dicembre 2020 17:30 CET
Pioggia Leggera, Prevalentemente Nuvoloso
Pioggia Leggera, Prevalentemente Nuvoloso
 Wind from varies
Vento: variabile 4 km/h
Temperatura: 27°C
Heat Index: 31°C
Punto di Rugiada: 25°C
Umidità: 89%
Barometro: 1007 hPa
Condizioni: Pioggia Leggera
Nuvole: Prevalentemente Nuvoloso
Visibilità: 10 km
Nuvole nel Dettaglio: Parzialmente Nuvoloso 701 m
Prevalentemente Nuvoloso 2743 m
2020/12/03 16:30 RPLL 031630Z VRB02KT 9999 -RA SCT023 BKN090 27/25 Q1007 RMK A2974
 
WMKK - Kuala Lumpur, Malaysia
Ultimo Aggiornamento: Giovedì 03 Dicembre 2020 17:30 CET
Qualche Nuvola
Qualche Nuvola
 Wind from Est
Vento: Est 6 km/h
Temperatura: 26°C
Punto di Rugiada: 24°C
Umidità: 89%
Barometro: 1010 hPa
Nuvole: Qualche Nuvola
Visibilità: 10 km
Nuvole nel Dettaglio: Qualche Nuvola 518 m
2020/12/03 16:30 WMKK 031630Z 10003KT 030V160 9999 FEW017CB 26/24 Q1010 NOSIG
WSSS - Singapore, Singapore
Ultimo Aggiornamento: Giovedì 03 Dicembre 2020 17:30 CET
Prevalentemente Nuvoloso
Prevalentemente Nuvoloso
 Wind from Nord-Nord-Ovest
Vento: Nord-Nord-Ovest 6 km/h
Temperatura: 25°C
Punto di Rugiada: 24°C
Umidità: 94%
Barometro: 1010 hPa
Nuvole: Prevalentemente Nuvoloso
Visibilità: 10 km
Nuvole nel Dettaglio: Qualche Nuvola 488 m
Prevalentemente Nuvoloso 4572 m
2020/12/03 16:30 WSSS 031630Z 33003KT 300V010 9999 FEW016 BKN150 25/24 Q1010 NOSIG
WBSB - Brunei, Brunei
Ultimo Aggiornamento: Giovedì 03 Dicembre 2020 17:30 CET
Prevalentemente Nuvoloso
Prevalentemente Nuvoloso
 Wind from Sud-Est
Vento: Sud-Est 4 km/h
Temperatura: 27°C
Heat Index: 31°C
Punto di Rugiada: 25°C
Umidità: 89%
Barometro: 1009 hPa
Nuvole: Prevalentemente Nuvoloso
Visibilità: 10 km
Nuvole nel Dettaglio: Qualche Nuvola 457 m
Prevalentemente Nuvoloso 9144 m
2020/12/03 16:30 WBSB 031630Z 14002KT 9999 FEW015 BKN300 27/25 Q1009 NOSIG